Search for airport 
image banner adimage banner adimage banner ad
image banner ad

05NV - Baker Ranches

Located in Baker, United States

ICAO - 05NV, IATA -

Data provided by Airmate  

General information

Coordinates: N39°1'33" W114°5'42"
Elevation is 5180 feet MSL.
 
View others Airports in Nevada

Operational data

Special qualification required
Current time UTC:
Current local time:
Weather at : KELY - Ely Arpt /Yelland Fld/ ( 71 km )
METAR: KELY 131053Z AUTO 17008KT 10SM CLR 06/M10 A3014 RMK AO2 SLP115 T00561100 $
TAF: KELY 130520Z 1306/1406 17010KT P6SM SKC FM131800 17015G25KT P6SM SKC
View NOTAMs / SUP AIP / TFR affecting this airport [VIEW]
Communications frequencies: [VIEW]

Runways:

RWY identifierQFULength (ft)Width (ft)SurfaceLDA (ft)
03475075EARTH
21475075EARTH
14420050EARTH
32420050EARTH

Airport contact information

Address: Baker United States

Satellite view of 05NV